Time;durP1;ratioP1;P1;durP2;ratioP2;P2;SDS_P1;SDS_P2;PMS_P1;PMS_P2;Temp;Humidity;BMP_temperature;BMP_pressure;BME280_temperature;BME280_humidity;BME280_pressure;Samples;Min_cycle;Max_cycle;Signal;HPM_P1;HPM_P2
2022/06/20 00:00:42;;;;;;;10.85;3.05;;;;;;;19.44;52.50;101225.81;5053008;28;20045;-71
2022/06/20 00:03:35;;;;;;;7.72;2.42;;;;;;;19.37;52.68;101236.47;5053078;28;20037;-72
2022/06/20 00:06:03;;;;;;;5.45;2.30;;;;;;;19.37;52.76;101241.91;5036562;28;20042;-71
2022/06/20 00:08:30;;;;;;;5.35;2.20;;;;;;;19.33;52.67;101235.91;5017676;28;20079;-71
2022/06/20 00:10:56;;;;;;;9.82;2.65;;;;;;;19.30;52.36;101249.81;5034900;28;20387;-71
2022/06/20 00:13:32;;;;;;;6.63;2.03;;;;;;;19.26;52.56;101242.97;5031254;28;20132;-71
2022/06/20 00:16:00;;;;;;;7.38;2.13;;;;;;;19.24;52.50;101234.09;5031104;28;20064;-71
2022/06/20 00:18:28;;;;;;;8.68;3.25;;;;;;;19.24;52.38;101249.59;5032488;28;20050;-71
2022/06/20 00:20:55;;;;;;;7.50;2.58;;;;;;;19.23;52.98;101256.03;5032514;28;20052;-70
2022/06/20 00:23:22;;;;;;;6.68;2.40;;;;;;;19.23;52.45;101258.78;5032675;28;20068;-71
2022/06/20 00:25:49;;;;;;;8.23;2.33;;;;;;;19.22;52.46;101238.00;5032548;28;20033;-71
2022/06/20 00:28:16;;;;;;;5.45;2.40;;;;;;;19.20;52.48;101235.44;5034577;28;20116;-71
2022/06/20 00:30:43;;;;;;;8.73;2.38;;;;;;;19.17;52.53;101232.16;5032891;28;20476;-70
2022/06/20 00:33:12;;;;;;;5.22;2.10;;;;;;;19.13;52.35;101244.38;5032669;28;20037;-70
2022/06/20 00:35:39;;;;;;;12.52;2.33;;;;;;;19.10;52.58;101258.28;5037299;28;20137;-70
2022/06/20 00:38:07;;;;;;;6.68;2.15;;;;;;;19.09;52.64;101262.03;5032599;28;20033;-71
2022/06/20 00:40:40;;;;;;;6.35;2.22;;;;;;;19.10;52.88;101280.06;5041787;28;20059;-71
2022/06/20 00:43:16;;;;;;;9.07;2.45;;;;;;;19.11;52.94;101292.69;5052701;28;20107;-70
2022/06/20 00:45:44;;;;;;;;;;;;;;;19.15;52.49;101319.44;5033017;28;20041;-70
2022/06/20 00:48:32;;;;;;;9.65;2.40;;;;;;;19.23;52.33;101321.41;5032618;28;19921;-67
2022/06/20 00:51:04;;;;;;;7.25;2.03;;;;;;;19.25;52.43;101313.94;5052243;28;20033;-70
2022/06/20 00:53:46;;;;;;;6.60;2.33;;;;;;;19.23;52.84;101305.91;5052001;28;20060;-70
2022/06/20 00:56:28;;;;;;;9.57;1.80;;;;;;;19.22;52.76;101344.19;5051697;28;20060;-70
2022/06/20 00:59:03;;;;;;;7.95;2.30;;;;;;;19.25;52.65;101361.09;5034965;28;20119;-70
2022/06/20 01:01:38;;;;;;;5.75;1.92;;;;;;;19.26;52.84;101383.72;5051980;28;20060;-70
2022/06/20 01:04:31;;;;;;;7.18;2.08;;;;;;;19.27;53.20;101420.84;5051936;28;20079;-70
2022/06/20 01:07:01;;;;;;;8.40;2.10;;;;;;;19.29;53.12;101432.44;5051596;28;20111;-71
2022/06/20 01:09:34;;;;;;;7.82;2.72;;;;;;;19.29;53.20;101443.34;5052144;28;20047;-71
2022/06/20 01:12:04;;;;;;;8.13;1.98;;;;;;;19.28;53.34;101458.81;5048359;28;20439;-70
2022/06/20 01:14:40;;;;;;;6.22;2.78;;;;;;;19.27;53.12;101457.09;5031967;28;20034;-70
2022/06/20 01:17:15;;;;;;;7.13;2.42;;;;;;;19.27;53.38;101438.03;5031717;28;20060;-71
2022/06/20 01:20:01;;;;;;;10.90;2.67;;;;;;;19.26;53.29;101421.84;5017392;28;20042;-71
2022/06/20 01:22:43;;;;;;;9.70;2.33;;;;;;;19.23;53.26;101412.13;5042682;28;20115;-70
2022/06/20 01:25:43;;;;;;;8.48;2.88;;;;;;;19.22;53.24;101399.50;5041854;28;20137;-71
2022/06/20 01:28:14;;;;;;;4.78;2.03;;;;;;;19.24;53.25;101397.50;5031673;28;20033;-71
2022/06/20 01:30:44;;;;;;;12.43;2.20;;;;;;;19.25;53.62;101395.63;5034140;28;20052;-71
2022/06/20 01:33:17;;;;;;;9.55;2.60;;;;;;;19.26;53.64;101402.78;5048357;28;20434;-71
2022/06/20 01:38:31;;;;;;;5.97;2.58;;;;;;;19.21;53.26;101380.59;5049244;28;20060;-71
2022/06/20 01:44:12;;;;;;;7.50;2.58;;;;;;;19.12;53.68;101357.00;5032290;28;20033;-70
2022/06/20 01:46:39;;;;;;;8.70;2.67;;;;;;;19.10;53.30;101345.41;5031348;28;20307;-70
2022/06/20 01:49:19;;;;;;;7.15;2.45;;;;;;;19.08;53.57;101339.25;5031759;28;20037;-70
2022/06/20 01:51:56;;;;;;;6.03;2.85;;;;;;;19.03;53.46;101346.03;5031151;28;20136;-70
2022/06/20 01:54:28;;;;;;;5.82;3.15;;;;;;;19.01;53.55;101345.31;5033376;28;20055;-70
2022/06/20 01:56:56;;;;;;;10.38;2.88;;;;;;;18.96;53.50;101336.75;5050997;28;20048;-70
2022/06/20 02:00:03;;;;;;;6.10;2.50;;;;;;;18.86;53.64;101316.88;5048989;28;20033;-70
2022/06/20 02:02:40;;;;;;;10.25;2.60;;;;;;;18.82;53.77;101309.19;5043065;28;20166;-70
2022/06/20 02:05:10;;;;;;;5.55;2.40;;;;;;;18.76;53.77;101298.91;5051100;28;20047;-70
2022/06/20 02:07:39;;;;;;;6.38;2.90;;;;;;;18.72;53.72;101312.81;5050904;28;20037;-70
2022/06/20 02:10:06;;;;;;;11.55;3.22;;;;;;;18.69;53.98;101304.94;5051015;28;20107;-70
2022/06/20 02:12:38;;;;;;;5.90;2.45;;;;;;;18.69;54.02;101301.38;5050686;28;20248;-70
2022/06/20 02:15:06;;;;;;;5.05;2.33;;;;;;;18.68;53.74;101286.06;5050354;28;20041;-71
2022/06/20 02:17:40;;;;;;;6.78;2.35;;;;;;;18.65;53.79;101287.22;5032411;28;20045;-71
2022/06/20 02:20:12;;;;;;;8.25;2.22;;;;;;;18.63;54.00;101286.50;5031055;28;20276;-71
2022/06/20 02:22:42;;;;;;;6.90;2.67;;;;;;;18.61;53.74;101282.19;5032765;28;20034;-70
2022/06/20 02:25:15;;;;;;;6.90;2.65;;;;;;;18.57;53.81;101278.03;5050133;28;20037;-71
2022/06/20 02:27:50;;;;;;;6.05;2.10;;;;;;;18.52;54.08;101275.75;5051012;28;20037;-70
2022/06/20 02:30:17;;;;;;;9.25;2.83;;;;;;;18.47;54.05;101267.19;5041019;28;20102;-70
2022/06/20 02:32:55;;;;;;;8.63;2.65;;;;;;;18.41;54.04;101260.47;5036226;28;20045;-71
2022/06/20 02:35:22;;;;;;;6.57;2.30;;;;;;;18.38;54.02;101244.47;5036322;28;20037;-71
2022/06/20 02:37:49;;;;;;;7.68;2.90;;;;;;;18.37;54.35;101244.63;5053874;28;20069;-70
2022/06/20 02:40:22;;;;;;;8.82;2.58;;;;;;;18.36;54.17;101241.03;5054184;28;20391;-70
2022/06/20 02:43:00;;;;;;;6.22;2.35;;;;;;;18.35;54.22;101233.88;5054376;28;20045;-70
2022/06/20 02:45:29;;;;;;;7.18;2.38;;;;;;;18.32;54.42;101226.03;5047638;28;20033;-70
2022/06/20 02:47:59;;;;;;;5.45;2.10;;;;;;;18.31;54.34;101235.19;5034574;28;20056;-71
2022/06/20 02:50:31;;;;;;;7.38;2.17;;;;;;;18.31;54.31;101237.91;5034695;28;20046;-70
2022/06/20 02:53:04;;;;;;;7.05;2.58;;;;;;;18.31;54.32;101239.78;5034731;28;20037;-70
2022/06/20 02:55:34;;;;;;;9.75;3.25;;;;;;;18.29;54.41;101231.78;5033424;28;20037;-70
2022/06/20 02:58:07;;;;;;;6.05;2.15;;;;;;;18.27;54.37;101228.34;5044007;28;20033;-70
2022/06/20 03:00:38;;;;;;;8.80;2.45;;;;;;;18.28;54.74;101218.31;5041579;28;20049;-71
2022/06/20 03:03:17;;;;;;;9.65;2.70;;;;;;;18.27;54.67;101209.31;5034797;28;20048;-70
2022/06/20 03:05:44;;;;;;;9.63;2.55;;;;;;;18.26;54.39;101207.59;5034819;28;20053;-71
2022/06/20 03:08:13;;;;;;;7.25;2.08;;;;;;;18.24;54.69;101201.47;5034459;28;20115;-71
2022/06/20 03:10:44;;;;;;;7.78;2.83;;;;;;;18.23;54.23;101199.75;5035611;28;20049;-70
2022/06/20 03:13:16;;;;;;;8.68;2.58;;;;;;;18.22;54.47;101200.75;5052815;28;20110;-71
2022/06/20 03:15:43;;;;;;;8.13;2.70;;;;;;;18.21;54.49;101192.75;5053412;28;20049;-70
2022/06/20 03:18:14;;;;;;;5.32;2.10;;;;;;;18.20;54.79;101191.03;5053663;28;20118;-70
2022/06/20 03:20:41;;;;;;;8.55;2.17;;;;;;;18.18;54.41;101182.16;5053524;28;20087;-71
2022/06/20 03:23:14;;;;;;;7.18;2.42;;;;;;;18.20;54.52;101191.88;5053822;28;20048;-70
2022/06/20 03:25:41;;;;;;;5.55;2.22;;;;;;;18.20;54.55;101191.03;5047640;28;20037;-70
2022/06/20 03:28:13;;;;;;;4.93;2.15;;;;;;;18.21;54.62;101185.44;5053770;28;20037;-70
2022/06/20 03:31:00;;;;;;;8.68;2.97;;;;;;;18.22;54.72;101192.59;5036470;28;20037;-70
2022/06/20 03:33:27;;;;;;;7.70;2.30;;;;;;;18.22;54.44;101189.88;5045133;28;20037;-70
2022/06/20 03:36:06;;;;;;;10.60;2.55;;;;;;;18.21;54.40;101201.75;5033935;28;20120;-70
2022/06/20 03:38:35;;;;;;;6.35;1.98;;;;;;;18.24;54.34;101209.63;5033621;28;20037;-70
2022/06/20 03:41:03;;;;;;;7.25;2.13;;;;;;;18.24;54.70;101214.19;5052480;28;20037;-70
2022/06/20 03:43:32;;;;;;;5.55;2.33;;;;;;;18.26;54.51;101212.19;5053637;28;20050;-70
2022/06/20 03:46:02;;;;;;;7.80;1.95;;;;;;;18.30;54.47;101228.03;5037643;28;20037;-71
2022/06/20 03:48:34;;;;;;;7.25;2.17;;;;;;;18.33;54.39;101235.91;5017568;28;20033;-72
2022/06/20 03:51:06;;;;;;;8.50;2.17;;;;;;;18.36;54.61;101232.88;5034458;28;20045;-72
2022/06/20 03:53:44;;;;;;;6.10;2.42;;;;;;;18.37;54.58;101234.59;5042275;28;20103;-72
2022/06/20 03:56:36;;;;;;;10.07;2.20;;;;;;;18.37;54.55;101250.06;5053343;28;20459;-71
2022/06/20 03:59:12;;;;;;;5.03;2.15;;;;;;;18.39;54.14;101256.19;5053022;28;20375;-71
2022/06/20 04:01:47;;;;;;;6.70;1.95;;;;;;;18.42;54.54;101274.94;5017781;28;20114;-71
2022/06/20 04:04:36;;;;;;;3.40;1.80;;;;;;;18.46;54.42;101286.38;5040774;28;20115;-71
2022/06/20 04:07:29;;;;;;;6.40;2.35;;;;;;;18.52;54.11;101285.78;5033165;28;20042;-70
2022/06/20 04:13:16;;;;;;;8.30;2.03;;;;;;;18.62;54.40;101275.78;5048030;28;20060;-71
2022/06/20 04:15:49;;;;;;;5.72;2.25;;;;;;;18.64;54.45;101274.63;5033013;28;20071;-71
2022/06/20 04:18:38;;;;;;;7.43;2.05;;;;;;;18.69;54.46;101282.31;5032875;28;20438;-70
2022/06/20 04:21:11;;;;;;;6.00;2.25;;;;;;;18.72;54.65;101284.75;5032901;28;20079;-71
2022/06/20 04:23:48;;;;;;;6.88;2.33;;;;;;;18.72;54.30;101292.91;5037131;28;20112;-70
2022/06/20 04:27:01;;;;;;;8.52;2.25;;;;;;;18.70;54.52;101290.34;5032816;28;20038;-71
2022/06/20 04:29:54;;;;;;;5.05;1.90;;;;;;;18.75;54.35;101308.06;4994257;28;20034;-71
2022/06/20 04:32:33;;;;;;;7.97;2.28;;;;;;;18.76;54.43;101310.63;5010250;28;20152;-70
2022/06/20 04:35:11;;;;;;;5.38;2.08;;;;;;;18.78;54.68;101314.06;5023203;28;20128;-71
2022/06/20 04:37:47;;;;;;;10.07;2.40;;;;;;;18.79;54.58;101310.34;5035835;28;20040;-71
2022/06/20 04:40:26;;;;;;;8.95;2.55;;;;;;;18.81;54.48;101312.91;5032485;28;20121;-71
2022/06/20 04:43:11;;;;;;;8.00;2.70;;;;;;;18.83;54.69;101317.19;5033282;28;20353;-71
2022/06/20 04:45:45;;;;;;;5.07;2.40;;;;;;;18.86;54.35;101326.91;5032168;28;20538;-71
2022/06/20 04:48:16;;;;;;;11.18;2.92;;;;;;;18.86;54.40;101326.91;5038512;28;20037;-71
2022/06/20 04:50:55;;;;;;;7.57;2.83;;;;;;;18.86;54.31;101327.78;5051576;28;20079;-71
2022/06/20 04:53:29;;;;;;;7.53;2.63;;;;;;;18.89;54.45;101332.91;5052173;28;20087;-71
2022/06/20 04:55:59;;;;;;;6.72;2.72;;;;;;;18.91;54.24;101333.63;5040606;28;20123;-71
2022/06/20 04:58:35;;;;;;;7.38;2.88;;;;;;;18.91;54.34;101341.78;5031918;28;20038;-71
2022/06/20 05:01:03;;;;;;;5.53;2.55;;;;;;;18.94;54.26;101352.38;5048052;28;20049;-71
2022/06/20 05:03:43;;;;;;;6.32;2.95;;;;;;;18.95;54.76;101353.22;5042564;28;20041;-71
2022/06/20 05:06:19;;;;;;;8.35;3.47;;;;;;;18.98;54.35;101353.78;5045167;28;20553;-71
2022/06/20 05:08:49;;;;;;;11.52;3.03;;;;;;;19.00;54.20;101364.53;5048028;28;20088;-71
2022/06/20 05:11:23;;;;;;;9.98;2.95;;;;;;;19.02;54.52;101366.09;5031855;28;20049;-70
2022/06/20 05:14:22;;;;;;;8.18;2.85;;;;;;;19.05;54.54;101364.94;5031827;28;20072;-71
2022/06/20 05:16:58;;;;;;;10.23;2.90;;;;;;;19.11;54.18;101371.63;5033090;28;20033;-70
2022/06/20 05:19:30;;;;;;;7.28;2.92;;;;;;;19.13;54.46;101358.72;5051325;28;20099;-70
2022/06/20 05:22:01;;;;;;;8.23;3.00;;;;;;;19.15;54.42;101359.44;5051539;28;20099;-70
2022/06/20 05:24:33;;;;;;;6.15;2.50;;;;;;;19.18;54.24;101359.97;5041473;28;20380;-70
2022/06/20 05:27:08;;;;;;;7.18;2.45;;;;;;;19.22;54.11;101360.53;5031359;28;20049;-70
2022/06/20 05:29:39;;;;;;;5.82;2.70;;;;;;;19.23;54.26;101356.78;5031503;28;20037;-70
2022/06/20 05:32:30;;;;;;;6.15;2.67;;;;;;;19.26;54.01;101361.94;5030980;28;20087;-70
2022/06/20 05:35:05;;;;;;;9.82;2.95;;;;;;;19.28;54.18;101360.78;5030796;28;20053;-70
2022/06/20 05:37:52;;;;;;;7.43;2.83;;;;;;;19.32;54.10;101361.31;5031997;28;20046;-70
2022/06/20 05:40:28;;;;;;;5.32;2.42;;;;;;;19.34;54.36;101370.22;5028769;28;20045;-71
2022/06/20 05:42:57;;;;;;;6.95;2.47;;;;;;;19.35;54.40;101372.81;5030988;28;20037;-72
2022/06/20 05:45:29;;;;;;;6.80;2.80;;;;;;;19.34;54.49;101372.97;5032078;28;20103;-67
2022/06/20 05:48:00;;;;;;;5.57;2.15;;;;;;;19.34;54.24;101365.66;5031327;28;20044;-67
2022/06/20 05:50:42;;;;;;;7.00;2.50;;;;;;;19.34;54.20;101367.50;5032557;28;20038;-68
2022/06/20 05:53:24;;;;;;;11.30;2.90;;;;;;;19.38;54.41;101362.63;5045958;28;20037;-68
2022/06/20 05:55:55;;;;;;;6.70;2.58;;;;;;;19.40;54.04;101356.00;5049591;28;20049;-68
2022/06/20 05:58:35;;;;;;;4.95;2.80;;;;;;;19.43;54.29;101358.41;5051522;28;20128;-68
2022/06/20 06:01:10;;;;;;;9.00;3.40;;;;;;;19.45;54.01;101356.41;5051066;28;20068;-68
2022/06/20 06:03:49;;;;;;;10.77;4.20;;;;;;;19.43;54.13;101354.84;5051504;28;20040;-68
2022/06/20 06:06:23;;;;;;;6.22;3.35;;;;;;;19.43;53.77;101366.59;5051228;28;20299;-67
2022/06/20 06:08:59;;;;;;;9.55;3.22;;;;;;;19.44;54.15;101368.31;5051035;28;20068;-68
2022/06/20 06:11:43;;;;;;;7.80;3.30;;;;;;;19.50;54.09;101378.59;5052317;28;20037;-67
2022/06/20 06:14:52;;;;;;;9.02;2.95;;;;;;;19.53;53.77;101372.00;5045788;28;20044;-69
2022/06/20 06:17:27;;;;;;;10.23;3.45;;;;;;;19.53;53.84;101378.31;5031508;28;20091;-67
2022/06/20 06:20:37;;;;;;;6.82;2.88;;;;;;;19.52;54.35;101383.88;5054928;28;20063;-68
2022/06/20 06:23:08;;;;;;;9.77;3.60;;;;;;;19.55;54.14;101387.19;5053424;28;20102;-69
2022/06/20 06:25:38;;;;;;;6.70;3.20;;;;;;;19.59;54.21;101390.44;5054941;28;20049;-68
2022/06/20 06:28:21;;;;;;;11.93;3.28;;;;;;;19.61;54.18;101382.97;5040853;28;20073;-69
2022/06/20 06:31:00;;;;;;;7.95;3.10;;;;;;;19.64;54.08;101388.97;5035054;28;20038;-69
2022/06/20 06:33:49;;;;;;;9.52;3.40;;;;;;;19.67;53.95;101385.94;5035093;28;20045;-69
2022/06/20 06:36:30;;;;;;;7.63;3.40;;;;;;;19.72;54.21;101387.34;5034908;28;20040;-69
2022/06/20 06:39:17;;;;;;;7.45;2.83;;;;;;;19.73;53.75;101380.88;5034983;28;20088;-69
2022/06/20 06:41:47;;;;;;;8.25;2.63;;;;;;;19.77;53.56;101377.69;5033375;28;20514;-70
2022/06/20 06:44:17;;;;;;;8.27;3.03;;;;;;;19.84;53.68;101378.78;5034856;28;20045;-70
2022/06/20 06:46:48;;;;;;;9.73;2.75;;;;;;;19.91;53.66;101388.03;5034768;28;20064;-70
2022/06/20 06:49:36;;;;;;;7.70;2.50;;;;;;;19.95;53.44;101378.53;5034919;28;20091;-70
2022/06/20 06:52:14;;;;;;;5.75;2.05;;;;;;;20.02;53.63;101386.09;5033813;28;20045;-70
2022/06/20 06:54:41;;;;;;;7.70;2.53;;;;;;;20.10;53.15;101391.66;5034716;28;20041;-70
2022/06/20 06:57:23;;;;;;;4.45;2.45;;;;;;;20.16;53.37;101399.19;5034660;28;20069;-70
2022/06/20 07:00:18;;;;;;;7.35;2.45;;;;;;;20.26;53.15;101389.91;5033243;28;20045;-70
2022/06/20 07:02:52;;;;;;;7.03;2.92;;;;;;;20.41;53.04;101409.31;5034252;28;20033;-70
2022/06/20 07:05:19;;;;;;;7.55;2.17;;;;;;;20.56;52.72;101399.53;5034609;28;20041;-69
2022/06/20 07:07:55;;;;;;;4.82;2.13;;;;;;;20.65;52.91;101403.16;5033022;28;20057;-70
2022/06/20 07:10:39;;;;;;;7.97;2.45;;;;;;;20.72;52.19;101401.50;5033285;28;20033;-70
2022/06/20 07:13:21;;;;;;;4.70;2.17;;;;;;;20.79;52.28;101401.72;5034226;28;20148;-70
2022/06/20 07:15:53;;;;;;;7.47;2.58;;;;;;;20.85;51.89;101401.94;5034385;28;20048;-69
2022/06/20 07:18:44;;;;;;;6.30;2.13;;;;;;;20.83;51.58;101405.88;5034328;28;20530;-70
2022/06/20 07:21:13;;;;;;;5.90;2.10;;;;;;;20.79;51.55;101416.22;5032850;28;20091;-70
2022/06/20 07:23:43;;;;;;;4.30;2.00;;;;;;;20.78;51.27;101417.25;5048849;28;20526;-70
2022/06/20 07:26:13;;;;;;;4.78;2.15;;;;;;;20.79;51.03;101416.22;5034134;28;20046;-69
2022/06/20 07:28:40;;;;;;;8.85;2.35;;;;;;;20.84;50.77;101416.63;5034356;28;20103;-69
2022/06/20 07:31:18;;;;;;;6.65;2.63;;;;;;;20.96;50.88;101410.88;5033894;28;20048;-70
2022/06/20 07:34:08;;;;;;;4.70;2.22;;;;;;;21.12;51.29;101413.69;5033828;28;20041;-70
2022/06/20 07:36:41;;;;;;;7.68;2.50;;;;;;;21.39;51.06;101418.94;5033870;28;20068;-69
2022/06/20 07:39:24;;;;;;;5.32;2.10;;;;;;;21.60;50.55;101421.28;5033697;28;20038;-70
2022/06/20 07:41:58;;;;;;;4.25;2.00;;;;;;;21.78;50.06;101419.25;5033697;28;20049;-69
2022/06/20 07:44:40;;;;;;;5.95;2.10;;;;;;;21.93;49.52;101413.13;5033758;28;20117;-69
2022/06/20 07:47:21;;;;;;;6.40;2.33;;;;;;;22.11;49.39;101416.59;5049010;28;20498;-71
2022/06/20 07:49:55;;;;;;;4.82;2.08;;;;;;;22.27;49.02;101422.06;5032261;28;20056;-70
2022/06/20 07:52:35;;;;;;;6.05;2.15;;;;;;;22.44;48.82;101412.84;5033338;28;20053;-70
2022/06/20 07:55:08;;;;;;;5.82;1.85;;;;;;;22.58;48.68;101416.78;5032264;28;20063;-70
2022/06/20 07:57:40;;;;;;;7.40;2.85;;;;;;;22.65;48.29;101409.56;5032209;28;20042;-70
2022/06/20 08:00:19;;;;;;;7.97;2.65;;;;;;;22.67;47.96;101414.88;5033386;28;20033;-69
2022/06/20 08:03:06;;;;;;;5.05;1.88;;;;;;;22.64;47.31;101424.28;5033174;28;20045;-69
2022/06/20 08:05:38;;;;;;;4.25;2.00;;;;;;;22.57;47.20;101427.88;5033205;28;20041;-70
2022/06/20 08:08:22;;;;;;;7.05;2.25;;;;;;;22.47;46.37;101433.53;5033287;28;20061;-70
2022/06/20 08:11:00;;;;;;;5.57;2.28;;;;;;;22.48;46.30;101433.38;5033642;28;20045;-69
2022/06/20 08:13:38;;;;;;;6.45;2.75;;;;;;;22.58;46.27;101432.34;5033143;28;20037;-69
2022/06/20 08:16:13;;;;;;;4.88;2.28;;;;;;;22.64;46.00;101435.25;5032992;28;20033;-70
2022/06/20 08:18:40;;;;;;;7.75;2.63;;;;;;;22.66;45.83;101433.19;5033047;28;20395;-70
2022/06/20 08:21:16;;;;;;;6.40;2.40;;;;;;;22.63;45.27;101444.47;5032961;28;20042;-70
2022/06/20 08:23:55;;;;;;;6.82;2.60;;;;;;;22.58;45.20;101433.19;5033440;28;20091;-70
2022/06/20 08:26:29;;;;;;;5.13;2.00;;;;;;;22.51;44.99;101443.97;5032788;28;20288;-69
2022/06/20 08:29:16;;;;;;;5.13;2.10;;;;;;;22.37;45.11;101438.34;5032866;28;20037;-70
2022/06/20 08:31:50;;;;;;;4.05;2.15;;;;;;;22.35;45.00;101445.88;5032525;28;20092;-70
2022/06/20 08:34:29;;;;;;;5.47;2.10;;;;;;;22.43;45.27;101449.47;5031779;28;20077;-70
2022/06/20 08:37:13;;;;;;;9.68;2.50;;;;;;;22.49;45.32;101446.03;5032849;28;20038;-70
2022/06/20 08:39:52;;;;;;;9.82;2.67;;;;;;;22.55;45.23;101446.38;5032819;28;20041;-70
2022/06/20 08:42:55;;;;;;;9.20;2.25;;;;;;;22.64;45.13;101446.19;5032527;28;20034;-71
2022/06/20 08:45:57;;;;;;;4.38;2.10;;;;;;;22.79;45.21;101447.19;5032504;28;20037;-70
2022/06/20 08:48:58;;;;;;;5.35;2.03;;;;;;;22.94;44.95;101452.84;5032599;28;20052;-70
2022/06/20 08:55:33;;;;;;;5.40;2.38;;;;;;;23.31;44.50;101454.13;5032413;28;20037;-69
2022/06/20 08:58:07;;;;;;;5.13;2.20;;;;;;;23.45;43.95;101448.75;5031233;28;20044;-70
2022/06/20 09:00:42;;;;;;;4.13;2.30;;;;;;;23.55;43.68;101466.91;5031106;28;20045;-70
2022/06/20 09:03:37;;;;;;;6.15;2.85;;;;;;;23.57;43.52;101467.56;5032234;28;20056;-70
2022/06/20 09:06:13;;;;;;;3.95;2.10;;;;;;;23.60;42.84;101465.31;5031011;28;20034;-70
2022/06/20 09:09:07;;;;;;;4.95;1.90;;;;;;;23.61;42.23;101472.53;5030814;28;20042;-70
2022/06/20 09:11:52;;;;;;;7.03;2.13;;;;;;;23.50;41.89;101470.16;5030724;28;20037;-70
2022/06/20 09:14:31;;;;;;;5.97;2.15;;;;;;;23.51;42.07;101471.84;5030818;28;20044;-70
2022/06/20 09:17:22;;;;;;;7.63;2.50;;;;;;;23.55;42.24;101481.47;5032223;28;20048;-70
2022/06/20 09:20:17;;;;;;;6.85;2.97;;;;;;;23.51;41.90;101480.06;5031931;28;20041;-70
2022/06/20 09:23:02;;;;;;;5.28;2.63;;;;;;;23.46;41.80;101482.50;5029463;28;20147;-70
2022/06/20 09:25:55;;;;;;;4.60;2.88;;;;;;;23.43;41.65;101486.44;5031778;28;20037;-69
2022/06/20 09:29:12;;;;;;;5.03;2.15;;;;;;;23.54;41.73;101478.88;5031688;28;20255;-70
2022/06/20 09:32:20;;;;;;;12.52;3.28;;;;;;;23.77;41.68;101480.66;5031569;28;20107;-70
2022/06/20 09:35:07;;;;;;;4.78;2.40;;;;;;;23.97;41.58;101486.56;5031631;28;20079;-70
2022/06/20 09:38:03;;;;;;;4.63;2.67;;;;;;;24.04;41.19;101489.44;5031575;28;20033;-69
2022/06/20 09:40:38;;;;;;;4.25;2.20;;;;;;;24.05;40.43;101489.28;5031568;28;20038;-70
2022/06/20 09:43:40;;;;;;;5.47;2.20;;;;;;;24.12;40.18;101492.13;5031547;28;20061;-70
2022/06/20 09:46:35;;;;;;;5.32;2.15;;;;;;;24.22;40.42;101484.53;5031408;28;20411;-70
2022/06/20 09:49:18;;;;;;;6.65;1.92;;;;;;;24.42;40.15;101482.16;5031484;28;20041;-70
2022/06/20 09:52:03;;;;;;;6.63;2.40;;;;;;;24.64;39.81;101480.47;5031483;28;20045;-70
2022/06/20 09:54:52;;;;;;;7.72;2.65;;;;;;;24.74;38.95;101474.72;5031581;28;20076;-70
2022/06/20 09:57:53;;;;;;;3.60;2.45;;;;;;;24.67;38.80;101480.94;5031460;28;20042;-70
2022/06/20 10:00:26;;;;;;;4.80;2.60;;;;;;;24.67;38.94;101482.84;5031637;28;20057;-70
2022/06/20 10:03:29;;;;;;;7.60;3.53;;;;;;;24.67;39.01;101478.19;5031415;28;20561;-70
2022/06/20 10:06:06;;;;;;;6.80;2.83;;;;;;;24.74;38.68;101488.44;5031217;28;20029;-70
2022/06/20 10:09:04;;;;;;;7.63;3.17;;;;;;;24.76;38.70;101489.09;5031243;28;20041;-70
2022/06/20 10:11:40;;;;;;;7.78;2.65;;;;;;;24.87;38.61;101491.41;5031288;28;20080;-70
2022/06/20 10:14:33;;;;;;;6.28;2.25;;;;;;;24.98;38.17;101489.09;5031185;28;20060;-71
2022/06/20 10:17:18;;;;;;;4.28;2.10;;;;;;;25.10;38.37;101478.47;5029775;28;20041;-70
2022/06/20 10:20:16;;;;;;;5.53;2.35;;;;;;;25.18;37.51;101483.03;5031115;28;20072;-70
2022/06/20 10:23:07;;;;;;;6.53;2.72;;;;;;;25.30;37.71;101487.91;5030300;28;20128;-70
2022/06/20 10:25:50;;;;;;;4.05;2.45;;;;;;;25.49;37.88;101491.13;5031149;28;20091;-70
2022/06/20 10:28:38;;;;;;;6.32;2.72;;;;;;;25.65;37.46;101490.91;5032533;28;20060;-71
2022/06/20 10:31:23;;;;;;;5.85;2.85;;;;;;;25.72;37.20;101493.78;5031040;28;20037;-71
2022/06/20 10:34:03;;;;;;;4.97;2.65;;;;;;;25.77;36.95;101492.16;5031065;28;20052;-70
2022/06/20 10:36:53;;;;;;;8.60;2.45;;;;;;;25.86;36.53;101499.25;5031046;28;20037;-70
2022/06/20 10:39:23;;;;;;;4.45;2.22;;;;;;;25.92;36.29;101501.22;5031421;28;20048;-71
2022/06/20 10:42:02;;;;;;;4.75;2.40;;;;;;;25.91;36.02;101494.00;5030994;28;20050;-71
2022/06/20 10:45:00;;;;;;;12.60;2.85;;;;;;;25.95;35.95;101491.72;5031176;28;20449;-71
2022/06/20 10:48:05;;;;;;;5.45;2.50;;;;;;;26.11;35.61;101507.19;5030908;28;20116;-71
2022/06/20 10:50:36;;;;;;;5.80;2.90;;;;;;;26.19;35.64;101513.41;5029447;28;20046;-71
2022/06/20 10:53:45;;;;;;;8.75;2.65;;;;;;;26.18;34.91;101513.59;5030817;28;20045;-71
2022/06/20 10:56:27;;;;;;;7.38;2.35;;;;;;;26.22;34.71;101514.91;5024266;28;20197;-69
2022/06/20 10:59:33;;;;;;;4.15;2.00;;;;;;;26.27;34.87;101507.78;5034284;28;20080;-70
2022/06/20 11:02:20;;;;;;;4.57;2.05;;;;;;;26.29;34.79;101513.09;5034247;28;20052;-70
2022/06/20 11:05:18;;;;;;;5.53;2.67;;;;;;;26.39;34.87;101518.31;5034568;28;20045;-70
2022/06/20 11:08:03;;;;;;;4.60;2.08;;;;;;;26.49;34.42;101514.16;5063103;28;20045;-70
2022/06/20 11:10:36;;;;;;;5.50;2.38;;;;;;;26.58;34.26;101521.25;5034324;28;20167;-70
2022/06/20 11:13:12;;;;;;;6.90;2.88;;;;;;;26.68;34.49;101523.66;5034025;28;20069;-70
2022/06/20 11:16:02;;;;;;;4.45;1.95;;;;;;;26.84;34.03;101517.06;5034082;28;20045;-70
2022/06/20 11:18:49;;;;;;;3.97;1.83;;;;;;;26.92;34.34;101527.94;5034200;28;20103;-70
2022/06/20 11:21:45;;;;;;;5.63;2.28;;;;;;;26.95;33.73;101523.94;5032861;28;20042;-71
2022/06/20 11:24:26;;;;;;;4.53;2.42;;;;;;;26.90;34.06;101524.53;5034274;28;20251;-70
2022/06/20 11:27:32;;;;;;;3.95;2.22;;;;;;;26.87;33.96;101525.78;5034013;28;20069;-70
2022/06/20 11:30:41;;;;;;;4.63;2.30;;;;;;;26.84;33.43;101526.19;5034159;28;20041;-70
2022/06/20 11:34:01;;;;;;;8.07;2.72;;;;;;;26.74;33.17;101519.28;5023337;28;20051;-70
2022/06/20 11:36:35;;;;;;;6.15;2.33;;;;;;;26.77;33.39;101521.66;5032683;28;20143;-70
2022/06/20 11:39:04;;;;;;;7.40;2.47;;;;;;;26.74;33.74;101531.16;5033456;28;20033;-69
2022/06/20 11:41:42;;;;;;;5.35;2.42;;;;;;;26.77;33.65;101518.91;5033893;28;20038;-69
2022/06/20 11:44:35;;;;;;;5.05;2.65;;;;;;;26.82;33.50;101517.25;5036722;28;20044;-69
2022/06/20 11:47:08;;;;;;;7.50;2.60;;;;;;;26.85;33.56;101516.84;5039434;28;20104;-68
2022/06/20 11:50:16;;;;;;;5.07;2.05;;;;;;;26.95;33.57;101513.75;5034172;28;20052;-68
2022/06/20 11:52:52;;;;;;;4.70;2.03;;;;;;;27.03;33.30;101515.53;5012750;28;20074;-68
2022/06/20 11:55:32;;;;;;;5.88;2.53;;;;;;;27.04;33.15;101515.34;5013837;28;20085;-69
2022/06/20 11:58:50;;;;;;;4.82;2.25;;;;;;;27.03;32.86;101512.78;5013690;28;20030;-69
2022/06/20 12:01:22;;;;;;;3.72;1.95;;;;;;;27.05;32.67;101514.28;5013356;28;20058;-68
2022/06/20 12:03:51;;;;;;;5.85;2.05;;;;;;;27.08;32.48;101505.59;5013398;28;20046;-68
2022/06/20 12:06:30;;;;;;;7.28;2.10;;;;;;;27.18;32.52;101502.50;5031490;28;20124;-69
2022/06/20 12:09:11;;;;;;;5.10;2.00;;;;;;;27.36;32.11;101519.38;5033100;28;20067;-68
2022/06/20 12:12:00;;;;;;;6.43;2.40;;;;;;;27.39;32.02;101516.19;5064083;28;20037;-69
2022/06/20 12:14:39;;;;;;;7.03;2.63;;;;;;;27.44;31.78;101526.63;5033155;28;20049;-69
2022/06/20 12:17:31;;;;;;;4.57;2.13;;;;;;;27.44;31.91;101524.72;5033089;28;20037;-69
2022/06/20 12:23:18;;;;;;;3.78;1.77;;;;;;;27.64;31.87;101519.38;5032842;28;20391;-69
2022/06/20 12:25:50;;;;;;;4.90;2.00;;;;;;;27.73;31.62;101523.66;5012980;28;20116;-69
2022/06/20 12:28:47;;;;;;;6.30;1.95;;;;;;;27.64;31.14;101516.63;5020608;28;20037;-69
2022/06/20 12:31:28;;;;;;;4.35;1.67;;;;;;;27.63;31.18;101509.38;5044279;28;20135;-69
2022/06/20 12:34:12;;;;;;;7.00;1.65;;;;;;;27.72;31.11;101496.25;5053087;28;20094;-69
2022/06/20 12:36:57;;;;;;;4.22;1.77;;;;;;;27.83;30.85;101507.56;5052636;28;20116;-68